sensor_id;sensor_type;location;lat;lon;timestamp;temperature;humidity
15638;DHT22;26604;53.596;10.042;2024-03-17T00:01:40;4.30;99.90
15638;DHT22;26604;53.596;10.042;2024-03-17T00:04:07;4.20;99.90
15638;DHT22;26604;53.596;10.042;2024-03-17T00:06:35;4.20;99.90
15638;DHT22;26604;53.596;10.042;2024-03-17T00:09:01;4.20;99.90
15638;DHT22;26604;53.596;10.042;2024-03-17T00:11:31;4.20;99.90
15638;DHT22;26604;53.596;10.042;2024-03-17T00:13:57;4.10;99.90
15638;DHT22;26604;53.596;10.042;2024-03-17T00:16:24;4.10;99.90
15638;DHT22;26604;53.596;10.042;2024-03-17T00:18:50;4.00;99.90
15638;DHT22;26604;53.596;10.042;2024-03-17T00:21:16;3.90;99.90
15638;DHT22;26604;53.596;10.042;2024-03-17T00:23:44;3.80;99.90
15638;DHT22;26604;53.596;10.042;2024-03-17T00:26:10;3.80;99.90
15638;DHT22;26604;53.596;10.042;2024-03-17T00:28:36;3.80;99.90
15638;DHT22;26604;53.596;10.042;2024-03-17T00:31:03;3.80;99.90
15638;DHT22;26604;53.596;10.042;2024-03-17T00:33:29;3.80;99.90
15638;DHT22;26604;53.596;10.042;2024-03-17T00:35:56;3.70;99.90
15638;DHT22;26604;53.596;10.042;2024-03-17T00:38:22;3.70;99.90
15638;DHT22;26604;53.596;10.042;2024-03-17T00:40:50;3.60;99.90
15638;DHT22;26604;53.596;10.042;2024-03-17T00:43:16;3.60;99.90
15638;DHT22;26604;53.596;10.042;2024-03-17T00:45:42;3.70;99.90
15638;DHT22;26604;53.596;10.042;2024-03-17T00:48:08;3.70;99.90
15638;DHT22;26604;53.596;10.042;2024-03-17T00:50:35;3.80;99.90
15638;DHT22;26604;53.596;10.042;2024-03-17T00:53:00;4.00;99.90
15638;DHT22;26604;53.596;10.042;2024-03-17T00:55:28;4.10;99.90
15638;DHT22;26604;53.596;10.042;2024-03-17T00:57:55;4.20;99.90
15638;DHT22;26604;53.596;10.042;2024-03-17T01:00:22;4.20;99.90
15638;DHT22;26604;53.596;10.042;2024-03-17T01:02:48;4.40;99.90
15638;DHT22;26604;53.596;10.042;2024-03-17T01:05:15;4.40;99.90
15638;DHT22;26604;53.596;10.042;2024-03-17T01:07:41;4.50;99.90
15638;DHT22;26604;53.596;10.042;2024-03-17T01:10:08;4.50;99.90
15638;DHT22;26604;53.596;10.042;2024-03-17T01:12:34;4.60;99.90
15638;DHT22;26604;53.596;10.042;2024-03-17T01:15:04;4.60;99.90
15638;DHT22;26604;53.596;10.042;2024-03-17T01:17:30;4.70;99.90
15638;DHT22;26604;53.596;10.042;2024-03-17T01:19:57;4.70;99.90
15638;DHT22;26604;53.596;10.042;2024-03-17T01:22:23;4.70;99.90
15638;DHT22;26604;53.596;10.042;2024-03-17T01:24:50;4.60;99.90
15638;DHT22;26604;53.596;10.042;2024-03-17T01:27:16;4.50;99.90
15638;DHT22;26604;53.596;10.042;2024-03-17T01:29:43;4.40;99.90
15638;DHT22;26604;53.596;10.042;2024-03-17T01:32:10;4.30;99.90
15638;DHT22;26604;53.596;10.042;2024-03-17T01:34:37;4.30;99.90
15638;DHT22;26604;53.596;10.042;2024-03-17T01:37:03;4.30;99.90
15638;DHT22;26604;53.596;10.042;2024-03-17T01:39:30;4.20;99.90
15638;DHT22;26604;53.596;10.042;2024-03-17T01:41:57;4.20;99.90
15638;DHT22;26604;53.596;10.042;2024-03-17T01:44:26;4.20;99.90
15638;DHT22;26604;53.596;10.042;2024-03-17T01:46:53;4.10;99.90
15638;DHT22;26604;53.596;10.042;2024-03-17T01:49:22;4.00;99.90
15638;DHT22;26604;53.596;10.042;2024-03-17T01:51:48;4.00;99.90
15638;DHT22;26604;53.596;10.042;2024-03-17T01:54:16;4.10;99.90
15638;DHT22;26604;53.596;10.042;2024-03-17T01:56:42;4.10;99.90
15638;DHT22;26604;53.596;10.042;2024-03-17T01:59:10;4.10;99.90
15638;DHT22;26604;53.596;10.042;2024-03-17T02:01:36;4.00;99.90
15638;DHT22;26604;53.596;10.042;2024-03-17T02:04:03;4.10;99.90
15638;DHT22;26604;53.596;10.042;2024-03-17T02:06:30;4.20;99.90
15638;DHT22;26604;53.596;10.042;2024-03-17T02:08:57;4.10;99.90
15638;DHT22;26604;53.596;10.042;2024-03-17T02:11:25;4.00;99.90
15638;DHT22;26604;53.596;10.042;2024-03-17T02:13:53;3.90;99.90
15638;DHT22;26604;53.596;10.042;2024-03-17T02:16:19;3.80;99.90
15638;DHT22;26604;53.596;10.042;2024-03-17T02:18:46;3.70;99.90
15638;DHT22;26604;53.596;10.042;2024-03-17T02:21:12;3.70;99.90
15638;DHT22;26604;53.596;10.042;2024-03-17T02:23:41;3.60;99.90
15638;DHT22;26604;53.596;10.042;2024-03-17T02:26:07;3.60;99.90
15638;DHT22;26604;53.596;10.042;2024-03-17T02:28:39;3.60;99.90
15638;DHT22;26604;53.596;10.042;2024-03-17T02:31:06;3.60;99.90
15638;DHT22;26604;53.596;10.042;2024-03-17T02:33:33;3.70;99.90
15638;DHT22;26604;53.596;10.042;2024-03-17T02:35:59;3.70;99.90
15638;DHT22;26604;53.596;10.042;2024-03-17T02:38:26;3.70;99.90
15638;DHT22;26604;53.596;10.042;2024-03-17T02:41:08;3.70;99.90
15638;DHT22;26604;53.596;10.042;2024-03-17T02:43:35;3.70;99.90
15638;DHT22;26604;53.596;10.042;2024-03-17T02:46:02;3.70;99.90
15638;DHT22;26604;53.596;10.042;2024-03-17T02:48:30;3.70;99.90
15638;DHT22;26604;53.596;10.042;2024-03-17T02:50:57;3.60;99.90
15638;DHT22;26604;53.596;10.042;2024-03-17T02:53:24;3.40;99.90
15638;DHT22;26604;53.596;10.042;2024-03-17T02:55:51;3.30;99.90
15638;DHT22;26604;53.596;10.042;2024-03-17T02:58:19;3.20;99.90
15638;DHT22;26604;53.596;10.042;2024-03-17T03:00:46;3.10;99.90
15638;DHT22;26604;53.596;10.042;2024-03-17T03:03:12;3.00;99.90
15638;DHT22;26604;53.596;10.042;2024-03-17T03:05:39;2.90;99.90
15638;DHT22;26604;53.596;10.042;2024-03-17T03:08:06;2.90;99.90
15638;DHT22;26604;53.596;10.042;2024-03-17T03:10:33;2.80;99.90
15638;DHT22;26604;53.596;10.042;2024-03-17T03:13:01;2.70;99.90
15638;DHT22;26604;53.596;10.042;2024-03-17T03:15:30;2.60;99.90
15638;DHT22;26604;53.596;10.042;2024-03-17T03:17:57;2.60;99.90
15638;DHT22;26604;53.596;10.042;2024-03-17T03:20:24;2.70;99.90
15638;DHT22;26604;53.596;10.042;2024-03-17T03:22:51;2.70;99.90
15638;DHT22;26604;53.596;10.042;2024-03-17T03:25:17;2.70;99.90
15638;DHT22;26604;53.596;10.042;2024-03-17T03:27:44;2.80;99.90
15638;DHT22;26604;53.596;10.042;2024-03-17T03:30:12;2.80;99.90
15638;DHT22;26604;53.596;10.042;2024-03-17T03:32:42;2.70;99.90
15638;DHT22;26604;53.596;10.042;2024-03-17T03:35:09;2.60;99.90
15638;DHT22;26604;53.596;10.042;2024-03-17T03:37:34;2.50;99.90
15638;DHT22;26604;53.596;10.042;2024-03-17T03:40:01;2.40;99.90
15638;DHT22;26604;53.596;10.042;2024-03-17T03:42:33;2.40;99.90
15638;DHT22;26604;53.596;10.042;2024-03-17T03:45:00;2.40;99.90
15638;DHT22;26604;53.596;10.042;2024-03-17T03:47:27;2.40;99.90
15638;DHT22;26604;53.596;10.042;2024-03-17T03:49:55;2.30;99.90
15638;DHT22;26604;53.596;10.042;2024-03-17T03:52:22;2.30;99.90
15638;DHT22;26604;53.596;10.042;2024-03-17T03:54:51;2.20;99.90
15638;DHT22;26604;53.596;10.042;2024-03-17T03:57:18;2.20;99.90
15638;DHT22;26604;53.596;10.042;2024-03-17T03:59:45;2.10;99.90
15638;DHT22;26604;53.596;10.042;2024-03-17T04:02:12;2.20;99.90
15638;DHT22;26604;53.596;10.042;2024-03-17T04:04:39;2.20;99.90
15638;DHT22;26604;53.596;10.042;2024-03-17T04:07:07;2.30;99.90
15638;DHT22;26604;53.596;10.042;2024-03-17T04:09:34;2.40;99.90
15638;DHT22;26604;53.596;10.042;2024-03-17T04:12:01;2.50;99.90
15638;DHT22;26604;53.596;10.042;2024-03-17T04:14:28;2.60;99.90
15638;DHT22;26604;53.596;10.042;2024-03-17T04:16:56;2.70;99.90
15638;DHT22;26604;53.596;10.042;2024-03-17T04:19:23;2.90;99.90
15638;DHT22;26604;53.596;10.042;2024-03-17T04:21:51;3.00;99.90
15638;DHT22;26604;53.596;10.042;2024-03-17T04:24:19;3.20;99.90
15638;DHT22;26604;53.596;10.042;2024-03-17T04:26:46;3.30;99.90
15638;DHT22;26604;53.596;10.042;2024-03-17T04:29:14;3.40;99.90
15638;DHT22;26604;53.596;10.042;2024-03-17T04:31:40;3.40;99.90
15638;DHT22;26604;53.596;10.042;2024-03-17T04:34:07;3.50;99.90
15638;DHT22;26604;53.596;10.042;2024-03-17T04:36:34;3.60;99.90
15638;DHT22;26604;53.596;10.042;2024-03-17T04:39:01;3.60;99.90
15638;DHT22;26604;53.596;10.042;2024-03-17T04:41:30;3.60;99.90
15638;DHT22;26604;53.596;10.042;2024-03-17T04:43:57;3.70;99.90
15638;DHT22;26604;53.596;10.042;2024-03-17T04:46:24;3.80;99.90
15638;DHT22;26604;53.596;10.042;2024-03-17T04:48:51;3.80;99.90
15638;DHT22;26604;53.596;10.042;2024-03-17T04:51:18;3.80;99.90
15638;DHT22;26604;53.596;10.042;2024-03-17T04:53:45;3.90;99.90
15638;DHT22;26604;53.596;10.042;2024-03-17T04:56:12;3.90;99.90
15638;DHT22;26604;53.596;10.042;2024-03-17T04:58:40;3.90;99.90
15638;DHT22;26604;53.596;10.042;2024-03-17T05:01:07;4.00;99.90
15638;DHT22;26604;53.596;10.042;2024-03-17T05:03:34;3.90;99.90
15638;DHT22;26604;53.596;10.042;2024-03-17T05:06:01;4.00;99.90
15638;DHT22;26604;53.596;10.042;2024-03-17T05:08:28;4.00;99.90
15638;DHT22;26604;53.596;10.042;2024-03-17T05:10:58;3.90;99.90
15638;DHT22;26604;53.596;10.042;2024-03-17T05:13:25;3.90;99.90
15638;DHT22;26604;53.596;10.042;2024-03-17T05:15:54;3.90;99.90
15638;DHT22;26604;53.596;10.042;2024-03-17T05:18:21;4.00;99.90
15638;DHT22;26604;53.596;10.042;2024-03-17T05:20:56;4.00;99.90
15638;DHT22;26604;53.596;10.042;2024-03-17T05:23:25;4.00;99.90
15638;DHT22;26604;53.596;10.042;2024-03-17T05:25:52;3.90;99.90
15638;DHT22;26604;53.596;10.042;2024-03-17T05:28:19;3.80;99.90
15638;DHT22;26604;53.596;10.042;2024-03-17T05:30:46;3.70;99.90
15638;DHT22;26604;53.596;10.042;2024-03-17T05:33:15;3.60;99.90
15638;DHT22;26604;53.596;10.042;2024-03-17T05:35:48;3.40;99.90
15638;DHT22;26604;53.596;10.042;2024-03-17T05:38:15;3.30;99.90
15638;DHT22;26604;53.596;10.042;2024-03-17T05:40:42;3.10;99.90
15638;DHT22;26604;53.596;10.042;2024-03-17T05:43:08;3.10;99.90
15638;DHT22;26604;53.596;10.042;2024-03-17T05:45:35;3.00;99.90
15638;DHT22;26604;53.596;10.042;2024-03-17T05:48:02;3.00;99.90
15638;DHT22;26604;53.596;10.042;2024-03-17T05:50:32;2.90;99.90
15638;DHT22;26604;53.596;10.042;2024-03-17T05:52:58;2.90;99.90
15638;DHT22;26604;53.596;10.042;2024-03-17T05:55:25;2.90;99.90
15638;DHT22;26604;53.596;10.042;2024-03-17T05:57:52;2.90;99.90
15638;DHT22;26604;53.596;10.042;2024-03-17T06:00:19;2.90;99.90
15638;DHT22;26604;53.596;10.042;2024-03-17T06:02:46;2.90;99.90
15638;DHT22;26604;53.596;10.042;2024-03-17T06:05:14;2.80;99.90
15638;DHT22;26604;53.596;10.042;2024-03-17T06:07:42;2.80;99.90
15638;DHT22;26604;53.596;10.042;2024-03-17T06:10:14;2.80;99.90
15638;DHT22;26604;53.596;10.042;2024-03-17T06:12:41;2.80;99.90
15638;DHT22;26604;53.596;10.042;2024-03-17T06:15:12;2.90;99.90
15638;DHT22;26604;53.596;10.042;2024-03-17T06:17:41;2.90;99.90
15638;DHT22;26604;53.596;10.042;2024-03-17T06:20:08;2.90;99.90
15638;DHT22;26604;53.596;10.042;2024-03-17T06:22:38;2.90;99.90
15638;DHT22;26604;53.596;10.042;2024-03-17T06:25:07;2.90;99.90
15638;DHT22;26604;53.596;10.042;2024-03-17T06:27:34;3.00;99.90
15638;DHT22;26604;53.596;10.042;2024-03-17T06:30:02;3.00;99.90
15638;DHT22;26604;53.596;10.042;2024-03-17T06:32:29;3.10;99.90
15638;DHT22;26604;53.596;10.042;2024-03-17T06:34:56;3.10;99.90
15638;DHT22;26604;53.596;10.042;2024-03-17T06:37:23;3.10;99.90
15638;DHT22;26604;53.596;10.042;2024-03-17T06:39:50;3.20;99.90
15638;DHT22;26604;53.596;10.042;2024-03-17T06:42:19;3.30;99.90
15638;DHT22;26604;53.596;10.042;2024-03-17T06:44:45;3.40;99.90
15638;DHT22;26604;53.596;10.042;2024-03-17T06:47:12;3.50;99.90
15638;DHT22;26604;53.596;10.042;2024-03-17T06:49:39;3.60;99.90
15638;DHT22;26604;53.596;10.042;2024-03-17T06:52:06;3.70;99.90
15638;DHT22;26604;53.596;10.042;2024-03-17T06:54:33;3.80;99.90
15638;DHT22;26604;53.596;10.042;2024-03-17T06:56:59;3.80;99.90
15638;DHT22;26604;53.596;10.042;2024-03-17T06:59:28;3.90;99.90
15638;DHT22;26604;53.596;10.042;2024-03-17T07:01:54;3.90;99.90
15638;DHT22;26604;53.596;10.042;2024-03-17T07:04:21;3.90;99.90
15638;DHT22;26604;53.596;10.042;2024-03-17T07:06:48;4.00;99.90
15638;DHT22;26604;53.596;10.042;2024-03-17T07:09:15;4.00;99.90
15638;DHT22;26604;53.596;10.042;2024-03-17T07:11:43;4.10;99.90
15638;DHT22;26604;53.596;10.042;2024-03-17T07:14:11;4.20;99.90
15638;DHT22;26604;53.596;10.042;2024-03-17T07:16:39;4.30;99.90
15638;DHT22;26604;53.596;10.042;2024-03-17T07:19:06;4.30;99.90
15638;DHT22;26604;53.596;10.042;2024-03-17T07:21:33;4.40;99.90
15638;DHT22;26604;53.596;10.042;2024-03-17T07:24:00;4.50;99.90
15638;DHT22;26604;53.596;10.042;2024-03-17T07:26:29;4.50;99.90
15638;DHT22;26604;53.596;10.042;2024-03-17T07:28:56;4.50;99.90
15638;DHT22;26604;53.596;10.042;2024-03-17T07:31:23;4.60;99.90
15638;DHT22;26604;53.596;10.042;2024-03-17T07:33:51;4.60;99.90
15638;DHT22;26604;53.596;10.042;2024-03-17T07:36:18;4.70;99.90
15638;DHT22;26604;53.596;10.042;2024-03-17T07:38:47;4.70;99.90
15638;DHT22;26604;53.596;10.042;2024-03-17T07:41:14;4.90;99.90
15638;DHT22;26604;53.596;10.042;2024-03-17T07:43:41;4.90;99.90
15638;DHT22;26604;53.596;10.042;2024-03-17T07:46:09;5.00;99.90
15638;DHT22;26604;53.596;10.042;2024-03-17T07:48:38;5.10;99.90
15638;DHT22;26604;53.596;10.042;2024-03-17T07:51:08;5.10;99.90
15638;DHT22;26604;53.596;10.042;2024-03-17T07:53:36;5.10;99.90
15638;DHT22;26604;53.596;10.042;2024-03-17T07:56:03;5.20;99.90
15638;DHT22;26604;53.596;10.042;2024-03-17T07:58:31;5.40;99.90
15638;DHT22;26604;53.596;10.042;2024-03-17T08:00:59;5.60;99.90
15638;DHT22;26604;53.596;10.042;2024-03-17T08:03:27;5.70;99.90
15638;DHT22;26604;53.596;10.042;2024-03-17T08:05:54;5.80;99.90
15638;DHT22;26604;53.596;10.042;2024-03-17T08:08:23;5.90;99.90
15638;DHT22;26604;53.596;10.042;2024-03-17T08:10:50;5.90;99.90
15638;DHT22;26604;53.596;10.042;2024-03-17T08:13:17;6.00;99.90
15638;DHT22;26604;53.596;10.042;2024-03-17T08:15:45;6.00;99.90
15638;DHT22;26604;53.596;10.042;2024-03-17T08:18:12;6.10;99.90
15638;DHT22;26604;53.596;10.042;2024-03-17T08:20:39;6.20;99.90
15638;DHT22;26604;53.596;10.042;2024-03-17T08:23:06;6.30;99.90
15638;DHT22;26604;53.596;10.042;2024-03-17T08:25:34;6.30;99.90
15638;DHT22;26604;53.596;10.042;2024-03-17T08:28:02;6.40;99.90
15638;DHT22;26604;53.596;10.042;2024-03-17T08:30:29;6.50;99.90
15638;DHT22;26604;53.596;10.042;2024-03-17T08:32:56;6.60;99.90
15638;DHT22;26604;53.596;10.042;2024-03-17T08:35:23;6.60;99.90
15638;DHT22;26604;53.596;10.042;2024-03-17T08:37:50;6.70;99.90
15638;DHT22;26604;53.596;10.042;2024-03-17T08:40:19;6.80;99.90
15638;DHT22;26604;53.596;10.042;2024-03-17T08:42:47;6.90;99.90
15638;DHT22;26604;53.596;10.042;2024-03-17T08:45:14;7.00;99.90
15638;DHT22;26604;53.596;10.042;2024-03-17T08:47:41;7.00;99.90
15638;DHT22;26604;53.596;10.042;2024-03-17T08:50:09;7.00;99.90
15638;DHT22;26604;53.596;10.042;2024-03-17T08:52:38;7.00;99.90
15638;DHT22;26604;53.596;10.042;2024-03-17T08:55:05;7.10;99.90
15638;DHT22;26604;53.596;10.042;2024-03-17T08:57:35;7.20;99.90
15638;DHT22;26604;53.596;10.042;2024-03-17T09:00:03;7.20;99.90
15638;DHT22;26604;53.596;10.042;2024-03-17T09:02:30;7.20;99.90
15638;DHT22;26604;53.596;10.042;2024-03-17T09:04:57;7.30;99.90
15638;DHT22;26604;53.596;10.042;2024-03-17T09:07:24;7.30;99.90
15638;DHT22;26604;53.596;10.042;2024-03-17T09:09:50;7.30;99.90
15638;DHT22;26604;53.596;10.042;2024-03-17T09:12:18;7.40;99.90
15638;DHT22;26604;53.596;10.042;2024-03-17T09:14:47;7.50;99.90
15638;DHT22;26604;53.596;10.042;2024-03-17T09:17:14;7.60;99.90
15638;DHT22;26604;53.596;10.042;2024-03-17T09:19:41;7.70;99.90
15638;DHT22;26604;53.596;10.042;2024-03-17T09:22:07;7.80;99.90
15638;DHT22;26604;53.596;10.042;2024-03-17T09:24:34;7.90;99.90
15638;DHT22;26604;53.596;10.042;2024-03-17T09:27:01;8.00;99.90
15638;DHT22;26604;53.596;10.042;2024-03-17T09:29:29;8.00;99.90
15638;DHT22;26604;53.596;10.042;2024-03-17T09:31:56;8.10;99.90
15638;DHT22;26604;53.596;10.042;2024-03-17T09:34:24;8.20;99.90
15638;DHT22;26604;53.596;10.042;2024-03-17T09:36:51;8.30;99.90
15638;DHT22;26604;53.596;10.042;2024-03-17T09:39:18;8.50;99.90
15638;DHT22;26604;53.596;10.042;2024-03-17T09:41:46;8.50;99.90
15638;DHT22;26604;53.596;10.042;2024-03-17T09:44:13;8.60;99.90
15638;DHT22;26604;53.596;10.042;2024-03-17T09:46:40;8.60;99.90
15638;DHT22;26604;53.596;10.042;2024-03-17T09:49:10;8.70;99.90
15638;DHT22;26604;53.596;10.042;2024-03-17T09:51:42;8.70;99.90
15638;DHT22;26604;53.596;10.042;2024-03-17T09:54:17;8.70;99.90
15638;DHT22;26604;53.596;10.042;2024-03-17T09:56:44;8.70;99.90
15638;DHT22;26604;53.596;10.042;2024-03-17T09:59:11;8.50;99.90
15638;DHT22;26604;53.596;10.042;2024-03-17T10:01:38;8.40;99.90
15638;DHT22;26604;53.596;10.042;2024-03-17T10:04:04;8.30;99.90
15638;DHT22;26604;53.596;10.042;2024-03-17T10:06:45;8.30;99.90
15638;DHT22;26604;53.596;10.042;2024-03-17T10:09:16;8.10;99.90
15638;DHT22;26604;53.596;10.042;2024-03-17T10:11:46;8.20;99.90
15638;DHT22;26604;53.596;10.042;2024-03-17T10:14:16;8.30;99.90
15638;DHT22;26604;53.596;10.042;2024-03-17T10:16:43;8.50;99.90
15638;DHT22;26604;53.596;10.042;2024-03-17T10:19:12;8.50;99.90
15638;DHT22;26604;53.596;10.042;2024-03-17T10:21:40;8.60;99.90
15638;DHT22;26604;53.596;10.042;2024-03-17T10:24:10;8.80;99.90
15638;DHT22;26604;53.596;10.042;2024-03-17T10:26:40;8.90;99.90
15638;DHT22;26604;53.596;10.042;2024-03-17T10:29:19;9.00;99.90
15638;DHT22;26604;53.596;10.042;2024-03-17T10:31:46;9.10;99.90
15638;DHT22;26604;53.596;10.042;2024-03-17T10:34:15;9.20;99.90
15638;DHT22;26604;53.596;10.042;2024-03-17T10:36:43;9.30;99.90
15638;DHT22;26604;53.596;10.042;2024-03-17T10:39:23;9.50;99.90
15638;DHT22;26604;53.596;10.042;2024-03-17T10:41:56;9.60;99.90
15638;DHT22;26604;53.596;10.042;2024-03-17T10:44:24;9.70;99.90
15638;DHT22;26604;53.596;10.042;2024-03-17T10:46:52;9.80;99.90
15638;DHT22;26604;53.596;10.042;2024-03-17T10:49:21;9.90;99.90
15638;DHT22;26604;53.596;10.042;2024-03-17T10:51:47;10.00;99.90
15638;DHT22;26604;53.596;10.042;2024-03-17T10:54:24;10.00;99.90
15638;DHT22;26604;53.596;10.042;2024-03-17T10:56:52;10.00;99.90
15638;DHT22;26604;53.596;10.042;2024-03-17T10:59:21;10.00;99.90
15638;DHT22;26604;53.596;10.042;2024-03-17T11:01:51;10.00;99.90
15638;DHT22;26604;53.596;10.042;2024-03-17T11:04:19;10.00;99.90
15638;DHT22;26604;53.596;10.042;2024-03-17T11:06:47;10.10;99.90
15638;DHT22;26604;53.596;10.042;2024-03-17T11:09:15;10.20;99.90
15638;DHT22;26604;53.596;10.042;2024-03-17T11:11:44;10.40;99.90
15638;DHT22;26604;53.596;10.042;2024-03-17T11:14:17;10.30;99.90
15638;DHT22;26604;53.596;10.042;2024-03-17T11:16:45;10.30;99.90
15638;DHT22;26604;53.596;10.042;2024-03-17T11:19:15;10.20;99.90
15638;DHT22;26604;53.596;10.042;2024-03-17T11:21:42;10.20;99.90
15638;DHT22;26604;53.596;10.042;2024-03-17T11:24:19;10.20;99.90
15638;DHT22;26604;53.596;10.042;2024-03-17T11:26:47;10.20;99.90
15638;DHT22;26604;53.596;10.042;2024-03-17T11:29:28;10.20;99.90
15638;DHT22;26604;53.596;10.042;2024-03-17T11:31:55;10.20;99.90
15638;DHT22;26604;53.596;10.042;2024-03-17T11:34:30;10.10;99.90
15638;DHT22;26604;53.596;10.042;2024-03-17T11:36:57;10.10;99.90
15638;DHT22;26604;53.596;10.042;2024-03-17T11:39:50;10.10;99.90
15638;DHT22;26604;53.596;10.042;2024-03-17T11:42:19;10.30;99.90
15638;DHT22;26604;53.596;10.042;2024-03-17T11:45:02;10.30;99.90
15638;DHT22;26604;53.596;10.042;2024-03-17T11:47:36;10.40;99.90
15638;DHT22;26604;53.596;10.042;2024-03-17T11:50:04;10.50;99.90
15638;DHT22;26604;53.596;10.042;2024-03-17T11:52:31;10.60;99.90
15638;DHT22;26604;53.596;10.042;2024-03-17T11:54:57;10.60;99.90
15638;DHT22;26604;53.596;10.042;2024-03-17T11:57:26;10.60;99.90
15638;DHT22;26604;53.596;10.042;2024-03-17T11:59:54;10.70;99.90
15638;DHT22;26604;53.596;10.042;2024-03-17T12:02:21;10.70;99.90
15638;DHT22;26604;53.596;10.042;2024-03-17T12:04:49;10.80;99.90
15638;DHT22;26604;53.596;10.042;2024-03-17T12:07:16;10.70;99.90
15638;DHT22;26604;53.596;10.042;2024-03-17T12:09:44;10.70;99.90
15638;DHT22;26604;53.596;10.042;2024-03-17T12:12:14;10.80;99.90
15638;DHT22;26604;53.596;10.042;2024-03-17T12:14:44;10.80;99.90
15638;DHT22;26604;53.596;10.042;2024-03-17T12:17:11;10.80;99.90
15638;DHT22;26604;53.596;10.042;2024-03-17T12:19:39;10.80;99.90
15638;DHT22;26604;53.596;10.042;2024-03-17T12:22:06;11.00;99.90
15638;DHT22;26604;53.596;10.042;2024-03-17T12:24:34;10.80;99.90
15638;DHT22;26604;53.596;10.042;2024-03-17T12:27:01;10.70;99.90
15638;DHT22;26604;53.596;10.042;2024-03-17T12:29:30;10.60;99.90
15638;DHT22;26604;53.596;10.042;2024-03-17T12:32:00;10.60;99.90
15638;DHT22;26604;53.596;10.042;2024-03-17T12:34:30;10.70;99.90
15638;DHT22;26604;53.596;10.042;2024-03-17T12:36:57;10.70;99.90
15638;DHT22;26604;53.596;10.042;2024-03-17T12:39:25;10.70;99.90
15638;DHT22;26604;53.596;10.042;2024-03-17T12:42:08;10.70;99.90
15638;DHT22;26604;53.596;10.042;2024-03-17T12:44:36;10.60;99.90
15638;DHT22;26604;53.596;10.042;2024-03-17T12:47:05;10.60;99.90
15638;DHT22;26604;53.596;10.042;2024-03-17T12:49:32;10.60;99.90
15638;DHT22;26604;53.596;10.042;2024-03-17T12:52:00;10.70;99.90
15638;DHT22;26604;53.596;10.042;2024-03-17T12:54:27;10.80;99.90
15638;DHT22;26604;53.596;10.042;2024-03-17T12:57:05;10.70;99.90
15638;DHT22;26604;53.596;10.042;2024-03-17T12:59:50;10.90;99.90
15638;DHT22;26604;53.596;10.042;2024-03-17T13:02:41;10.90;99.90
15638;DHT22;26604;53.596;10.042;2024-03-17T13:05:13;10.90;99.90
15638;DHT22;26604;53.596;10.042;2024-03-17T13:07:40;10.90;99.90
15638;DHT22;26604;53.596;10.042;2024-03-17T13:10:07;10.90;99.90
15638;DHT22;26604;53.596;10.042;2024-03-17T13:12:35;10.80;99.90
15638;DHT22;26604;53.596;10.042;2024-03-17T13:15:02;10.90;99.90
15638;DHT22;26604;53.596;10.042;2024-03-17T13:17:28;10.80;99.90
15638;DHT22;26604;53.596;10.042;2024-03-17T13:19:57;10.90;99.90
15638;DHT22;26604;53.596;10.042;2024-03-17T13:22:24;10.90;99.90
15638;DHT22;26604;53.596;10.042;2024-03-17T13:24:51;11.00;99.90
15638;DHT22;26604;53.596;10.042;2024-03-17T13:27:18;11.20;99.90
15638;DHT22;26604;53.596;10.042;2024-03-17T13:29:48;11.20;99.90
15638;DHT22;26604;53.596;10.042;2024-03-17T13:32:15;11.20;99.90
15638;DHT22;26604;53.596;10.042;2024-03-17T13:34:43;11.20;99.90
15638;DHT22;26604;53.596;10.042;2024-03-17T13:37:11;11.20;99.90
15638;DHT22;26604;53.596;10.042;2024-03-17T13:39:38;11.10;99.90
15638;DHT22;26604;53.596;10.042;2024-03-17T13:42:05;11.30;99.90
15638;DHT22;26604;53.596;10.042;2024-03-17T13:44:33;11.40;99.90
15638;DHT22;26604;53.596;10.042;2024-03-17T13:47:00;11.30;99.90
15638;DHT22;26604;53.596;10.042;2024-03-17T13:49:29;11.40;99.90
15638;DHT22;26604;53.596;10.042;2024-03-17T13:51:55;11.40;99.90
15638;DHT22;26604;53.596;10.042;2024-03-17T13:54:23;11.40;99.90
15638;DHT22;26604;53.596;10.042;2024-03-17T13:56:50;11.40;99.90
15638;DHT22;26604;53.596;10.042;2024-03-17T13:59:17;11.40;99.90
15638;DHT22;26604;53.596;10.042;2024-03-17T14:01:44;11.40;99.90
15638;DHT22;26604;53.596;10.042;2024-03-17T14:04:13;11.30;99.90
15638;DHT22;26604;53.596;10.042;2024-03-17T14:06:41;11.30;99.90
15638;DHT22;26604;53.596;10.042;2024-03-17T14:09:08;11.10;99.90
15638;DHT22;26604;53.596;10.042;2024-03-17T14:11:37;11.00;99.90
15638;DHT22;26604;53.596;10.042;2024-03-17T14:14:04;11.00;99.90
15638;DHT22;26604;53.596;10.042;2024-03-17T14:16:31;11.00;99.90
15638;DHT22;26604;53.596;10.042;2024-03-17T14:18:58;11.00;99.90
15638;DHT22;26604;53.596;10.042;2024-03-17T14:21:26;10.80;99.90
15638;DHT22;26604;53.596;10.042;2024-03-17T14:23:53;10.80;99.90
15638;DHT22;26604;53.596;10.042;2024-03-17T14:26:20;10.70;99.90
15638;DHT22;26604;53.596;10.042;2024-03-17T14:28:48;10.80;99.90
15638;DHT22;26604;53.596;10.042;2024-03-17T14:31:15;10.80;99.90
15638;DHT22;26604;53.596;10.042;2024-03-17T14:33:42;10.90;99.90
15638;DHT22;26604;53.596;10.042;2024-03-17T14:36:09;11.00;99.90
15638;DHT22;26604;53.596;10.042;2024-03-17T14:38:36;11.30;99.90
15638;DHT22;26604;53.596;10.042;2024-03-17T14:41:03;11.50;99.90
15638;DHT22;26604;53.596;10.042;2024-03-17T14:43:30;11.70;99.90
15638;DHT22;26604;53.596;10.042;2024-03-17T14:45:58;11.80;99.90
15638;DHT22;26604;53.596;10.042;2024-03-17T14:48:25;11.60;99.90
15638;DHT22;26604;53.596;10.042;2024-03-17T14:50:51;11.70;99.90
15638;DHT22;26604;53.596;10.042;2024-03-17T14:53:18;11.50;99.90
15638;DHT22;26604;53.596;10.042;2024-03-17T14:55:45;11.50;99.90
15638;DHT22;26604;53.596;10.042;2024-03-17T14:58:13;11.40;99.90
15638;DHT22;26604;53.596;10.042;2024-03-17T15:00:40;11.50;99.90
15638;DHT22;26604;53.596;10.042;2024-03-17T15:03:09;11.70;99.90
15638;DHT22;26604;53.596;10.042;2024-03-17T15:05:35;11.90;99.90
15638;DHT22;26604;53.596;10.042;2024-03-17T15:08:02;12.00;99.90
15638;DHT22;26604;53.596;10.042;2024-03-17T15:10:29;12.00;99.90
15638;DHT22;26604;53.596;10.042;2024-03-17T15:12:56;12.10;99.90
15638;DHT22;26604;53.596;10.042;2024-03-17T15:15:23;12.30;99.90
15638;DHT22;26604;53.596;10.042;2024-03-17T15:17:49;12.30;99.90
15638;DHT22;26604;53.596;10.042;2024-03-17T15:20:18;12.30;99.90
15638;DHT22;26604;53.596;10.042;2024-03-17T15:22:48;12.20;99.90
15638;DHT22;26604;53.596;10.042;2024-03-17T15:25:16;12.10;99.90
15638;DHT22;26604;53.596;10.042;2024-03-17T15:27:43;12.00;99.90
15638;DHT22;26604;53.596;10.042;2024-03-17T15:30:12;12.00;99.90
15638;DHT22;26604;53.596;10.042;2024-03-17T15:32:41;11.90;99.90